Time;durP1;ratioP1;P1;durP2;ratioP2;P2;SDS_P1;SDS_P2;PMS_P1;PMS_P2;Temp;Humidity;BMP_temperature;BMP_pressure;BME280_temperature;BME280_humidity;BME280_pressure;Samples;Min_cycle;Max_cycle;Signal;HPM_P1;HPM_P2
2023/04/11 00:00:18;;;;;;;14.00;9.85;;;;;;;;;;4993586;28;20032;-62
2023/04/11 00:02:45;;;;;;;13.95;9.93;;;;;;;;;;4992401;28;20394;-62
2023/04/11 00:05:11;;;;;;;14.00;10.00;;;;;;;;;;4993044;28;20030;-60
2023/04/11 00:07:37;;;;;;;13.95;9.80;;;;;;;;;;4993636;28;20058;-62
2023/04/11 00:10:05;;;;;;;13.90;9.65;;;;;;;;;;4993599;28;21459;-62
2023/04/11 00:12:31;;;;;;;13.95;9.68;;;;;;;;;;4993567;28;20351;-62
2023/04/11 00:14:57;;;;;;;13.77;9.35;;;;;;;;;;4992905;28;20113;-57
2023/04/11 00:17:23;;;;;;;13.93;9.82;;;;;;;;;;4993468;28;20034;-62
2023/04/11 00:19:52;;;;;;;16.77;10.75;;;;;;;;;;4993324;28;20030;-62
2023/04/11 00:22:18;;;;;;;13.85;9.52;;;;;;;;;;4992091;28;20394;-61
2023/04/11 00:24:44;;;;;;;13.90;9.50;;;;;;;;;;4992697;28;20026;-59
2023/04/11 00:27:10;;;;;;;13.90;9.60;;;;;;;;;;4993459;28;20032;-62
2023/04/11 00:29:36;;;;;;;13.85;9.48;;;;;;;;;;4992102;28;20034;-61
2023/04/11 00:32:03;;;;;;;14.18;10.05;;;;;;;;;;4993049;28;20041;-62
2023/04/11 00:34:29;;;;;;;13.90;9.50;;;;;;;;;;4992393;28;20019;-62
2023/04/11 00:36:55;;;;;;;13.93;9.75;;;;;;;;;;4993107;28;20025;-62
2023/04/11 00:39:21;;;;;;;32.30;11.27;;;;;;;;;;4992951;28;20023;-62
2023/04/11 00:41:47;;;;;;;13.90;9.65;;;;;;;;;;4992710;28;20495;-62
2023/04/11 00:44:14;;;;;;;13.85;9.40;;;;;;;;;;4991055;28;20155;-60
2023/04/11 00:46:42;;;;;;;14.20;10.45;;;;;;;;;;4991788;28;20026;-62
2023/04/11 00:49:08;;;;;;;13.80;9.27;;;;;;;;;;4992796;28;20030;-62
2023/04/11 00:51:34;;;;;;;13.98;9.68;;;;;;;;;;4991447;28;20049;-62
2023/04/11 00:54:00;;;;;;;13.88;9.60;;;;;;;;;;4992078;28;20034;-60
2023/04/11 00:56:27;;;;;;;13.80;9.40;;;;;;;;;;4992680;28;20015;-62
2023/04/11 00:58:53;;;;;;;13.80;9.30;;;;;;;;;;4992699;28;20060;-61
2023/04/11 01:01:22;;;;;;;13.63;8.93;;;;;;;;;;4992756;28;20034;-61
2023/04/11 01:03:48;;;;;;;13.85;9.52;;;;;;;;;;4991961;28;20080;-61
2023/04/11 01:06:16;;;;;;;13.85;9.52;;;;;;;;;;4991228;28;20118;-60
2023/04/11 01:08:43;;;;;;;13.93;9.80;;;;;;;;;;4992475;28;20452;-60
2023/04/11 01:11:11;;;;;;;14.00;9.98;;;;;;;;;;4992444;28;20060;-60
2023/04/11 01:13:39;;;;;;;15.57;11.23;;;;;;;;;;4991920;28;20175;-59
2023/04/11 01:16:06;;;;;;;14.07;10.13;;;;;;;;;;4991299;28;20030;-62
2023/04/11 01:18:32;;;;;;;14.18;10.38;;;;;;;;;;4991303;28;20034;-61
2023/04/11 01:21:00;;;;;;;14.38;10.80;;;;;;;;;;4992326;28;20022;-61
2023/04/11 01:23:27;;;;;;;14.02;9.80;;;;;;;;;;4991733;28;20510;-62
2023/04/11 01:25:53;;;;;;;14.43;11.20;;;;;;;;;;4984035;28;20039;-60
2023/04/11 01:28:20;;;;;;;14.60;11.75;;;;;;;;;;4990811;28;20023;-61
2023/04/11 01:30:46;;;;;;;18.35;16.55;;;;;;;;;;4992236;28;20041;-62
2023/04/11 01:33:12;;;;;;;19.02;17.23;;;;;;;;;;4991599;28;20030;-62
2023/04/11 01:35:38;;;;;;;19.55;17.75;;;;;;;;;;4992162;28;20033;-63
2023/04/11 01:38:05;;;;;;;20.05;18.25;;;;;;;;;;4991117;28;20402;-60
2023/04/11 01:40:34;;;;;;;20.65;18.85;;;;;;;;;;4990793;28;20109;-62
2023/04/11 01:43:00;;;;;;;20.58;18.77;;;;;;;;;;4984164;28;20064;-62
2023/04/11 01:45:26;;;;;;;20.15;18.35;;;;;;;;;;4992230;28;20033;-61
2023/04/11 01:47:53;;;;;;;19.58;17.77;;;;;;;;;;4990191;28;20556;-61
2023/04/11 01:50:19;;;;;;;19.52;17.73;;;;;;;;;;4990416;28;20034;-60
2023/04/11 01:52:45;;;;;;;18.77;16.98;;;;;;;;;;4992083;28;20109;-62
2023/04/11 01:55:11;;;;;;;19.20;17.40;;;;;;;;;;4995394;28;20030;-61
2023/04/11 01:57:37;;;;;;;18.63;16.83;;;;;;;;;;4995965;28;20085;-61
2023/04/11 02:00:05;;;;;;;18.17;16.40;;;;;;;;;;4994908;28;20505;-65
2023/04/11 02:02:31;;;;;;;17.45;15.75;;;;;;;;;;4994768;28;20030;-62
2023/04/11 02:04:57;;;;;;;17.40;15.70;;;;;;;;;;4995281;28;20078;-62
2023/04/11 02:07:23;;;;;;;16.70;15.00;;;;;;;;;;4995999;28;20038;-62
2023/04/11 02:09:49;;;;;;;16.27;14.57;;;;;;;;;;4995913;28;20105;-62
2023/04/11 02:12:15;;;;;;;16.88;15.18;;;;;;;;;;4995689;28;20058;-63
2023/04/11 02:14:42;;;;;;;15.35;13.68;;;;;;;;;;4993798;28;20023;-61
2023/04/11 02:17:11;;;;;;;16.33;14.63;;;;;;;;;;4995838;28;20033;-62
2023/04/11 02:19:40;;;;;;;20.40;18.60;;;;;;;;;;4995872;28;20630;-62
2023/04/11 02:22:09;;;;;;;37.78;35.28;;;;;;;;;;4995837;28;20035;-64
2023/04/11 02:24:35;;;;;;;38.05;35.55;;;;;;;;;;4995120;28;20041;-63
2023/04/11 02:27:01;;;;;;;36.70;34.20;;;;;;;;;;4995900;28;20077;-62
2023/04/11 02:29:27;;;;;;;34.78;32.38;;;;;;;;;;4994364;28;20034;-61
2023/04/11 02:31:53;;;;;;;35.67;33.28;;;;;;;;;;4995814;28;20104;-63
2023/04/11 02:34:19;;;;;;;33.97;31.58;;;;;;;;;;4995083;28;20101;-62
2023/04/11 02:36:45;;;;;;;31.90;29.60;;;;;;;;;;4995545;28;20084;-62
2023/04/11 02:39:12;;;;;;;30.08;27.88;;;;;;;;;;4994266;28;20026;-62
2023/04/11 02:41:38;;;;;;;27.80;25.70;;;;;;;;;;4993878;28;20033;-62
2023/04/11 02:44:05;;;;;;;28.02;25.85;;;;;;;;;;4994774;28;20026;-60
2023/04/11 02:46:31;;;;;;;24.92;22.92;;;;;;;;;;4994088;28;20034;-60
2023/04/11 02:48:57;;;;;;;25.17;23.17;;;;;;;;;;4995273;28;20109;-60
2023/04/11 02:51:22;;;;;;;25.20;23.20;;;;;;;;;;4995428;28;20034;-62
2023/04/11 02:53:48;;;;;;;24.20;22.20;;;;;;;;;;4994816;28;20137;-62
2023/04/11 02:56:17;;;;;;;24.48;22.48;;;;;;;;;;4995645;28;20022;-60
2023/04/11 02:58:44;;;;;;;24.55;22.55;;;;;;;;;;4995170;28;20027;-61
2023/04/11 03:01:10;;;;;;;27.45;25.25;;;;;;;;;;4995329;28;20046;-63
2023/04/11 03:03:37;;;;;;;26.52;24.40;;;;;;;;;;4994063;28;20022;-61
2023/04/11 03:06:03;;;;;;;25.55;23.55;;;;;;;;;;4993561;28;20034;-62
2023/04/11 03:08:29;;;;;;;26.13;24.02;;;;;;;;;;4994056;28;20026;-62
2023/04/11 03:10:55;;;;;;;24.90;22.90;;;;;;;;;;4995058;28;20033;-62
2023/04/11 03:13:22;;;;;;;26.15;24.05;;;;;;;;;;4994065;28;20411;-62
2023/04/11 03:15:48;;;;;;;23.83;21.85;;;;;;;;;;4994746;28;20039;-62
2023/04/11 03:18:13;;;;;;;22.65;20.75;;;;;;;;;;4994731;28;20046;-61
2023/04/11 03:20:39;;;;;;;21.70;19.80;;;;;;;;;;4993408;28;20109;-62
2023/04/11 03:23:05;;;;;;;20.65;18.83;;;;;;;;;;4994091;28;20386;-62
2023/04/11 03:25:31;;;;;;;22.02;20.08;;;;;;;;;;4994596;28;20015;-61
2023/04/11 03:27:57;;;;;;;29.98;18.75;;;;;;;;;;4994367;28;20030;-62
2023/04/11 03:30:23;;;;;;;19.90;18.10;;;;;;;;;;4994888;28;20502;-61
2023/04/11 03:32:51;;;;;;;19.45;17.65;;;;;;;;;;4993191;28;20058;-61
2023/04/11 03:35:19;;;;;;;19.90;18.10;;;;;;;;;;4993562;28;20048;-61
2023/04/11 03:37:45;;;;;;;19.40;17.60;;;;;;;;;;4994465;28;20412;-61
2023/04/11 03:40:11;;;;;;;20.08;18.27;;;;;;;;;;4994419;28;20089;-61
2023/04/11 03:42:37;;;;;;;19.13;17.33;;;;;;;;;;4994649;28;20562;-61
2023/04/11 03:45:03;;;;;;;24.55;20.15;;;;;;;;;;4993500;28;20490;-61
2023/04/11 03:47:30;;;;;;;19.80;18.00;;;;;;;;;;4994351;28;20052;-62
2023/04/11 03:49:56;;;;;;;19.40;17.60;;;;;;;;;;4994090;28;20040;-62
2023/04/11 03:52:22;;;;;;;19.45;17.65;;;;;;;;;;4992696;28;20038;-62
2023/04/11 03:54:48;;;;;;;19.20;17.40;;;;;;;;;;4993163;28;20106;-62
2023/04/11 03:57:14;;;;;;;19.58;17.77;;;;;;;;;;4992330;28;20462;-62
2023/04/11 03:59:40;;;;;;;19.58;17.70;;;;;;;;;;4993938;28;20080;-61
2023/04/11 04:02:06;;;;;;;18.85;17.05;;;;;;;;;;4992670;28;20125;-62
2023/04/11 04:04:32;;;;;;;20.70;16.88;;;;;;;;;;4993315;28;20033;-62
2023/04/11 04:06:58;;;;;;;17.17;15.48;;;;;;;;;;4993842;28;20034;-61
2023/04/11 04:09:24;;;;;;;17.25;15.55;;;;;;;;;;4993667;28;20394;-61
2023/04/11 04:11:50;;;;;;;16.40;14.70;;;;;;;;;;4993593;28;20457;-60
2023/04/11 04:14:16;;;;;;;15.00;12.70;;;;;;;;;;4992404;28;20037;-60
2023/04/11 04:16:42;;;;;;;14.90;12.30;;;;;;;;;;4992913;28;20402;-63
2023/04/11 04:19:08;;;;;;;14.43;11.10;;;;;;;;;;4993338;28;20050;-61
2023/04/11 04:21:36;;;;;;;17.98;14.20;;;;;;;;;;4993595;28;20049;-62
2023/04/11 04:24:03;;;;;;;16.35;13.40;;;;;;;;;;4992849;28;20034;-62
2023/04/11 04:26:30;;;;;;;14.65;11.80;;;;;;;;;;4993389;28;20096;-62
2023/04/11 04:29:03;;;;;;;14.30;10.68;;;;;;;;;;4993285;28;20538;-62
2023/04/11 04:31:32;;;;;;;14.20;10.45;;;;;;;;;;4993153;28;20030;-63
2023/04/11 04:34:01;;;;;;;14.35;10.80;;;;;;;;;;4992537;28;20509;-61
2023/04/11 04:36:28;;;;;;;14.55;11.55;;;;;;;;;;4993178;28;20030;-62
2023/04/11 04:39:00;;;;;;;15.13;13.15;;;;;;;;;;4993224;28;20018;-61
2023/04/11 04:41:32;;;;;;;18.58;16.77;;;;;;;;;;4993014;28;20114;-62
2023/04/11 04:43:58;;;;;;;22.23;20.33;;;;;;;;;;4992627;28;20026;-63
2023/04/11 04:46:24;;;;;;;33.58;31.17;;;;;;;;;;4993376;28;20037;-62
2023/04/11 04:48:50;;;;;;;61.92;57.45;;;;;;;;;;4992552;28;20030;-58
2023/04/11 04:51:16;;;;;;;61.53;57.03;;;;;;;;;;4992942;28;20037;-60
2023/04/11 04:53:42;;;;;;;58.38;54.28;;;;;;;;;;4992128;28;20490;-60
2023/04/11 04:56:08;;;;;;;63.60;59.20;;;;;;;;;;4992990;28;20033;-60
2023/04/11 04:58:34;;;;;;;62.05;57.75;;;;;;;;;;4991522;28;20027;-60
2023/04/11 05:01:01;;;;;;;63.15;58.85;;;;;;;;;;4992535;28;20102;-60
2023/04/11 05:03:27;;;;;;;59.42;55.42;;;;;;;;;;4992088;28;20046;-60
2023/04/11 05:05:53;;;;;;;60.88;56.78;;;;;;;;;;4992683;28;20034;-60
2023/04/11 05:08:19;;;;;;;60.13;56.13;;;;;;;;;;4992685;28;20022;-60
2023/04/11 05:10:45;;;;;;;61.50;57.60;;;;;;;;;;4992450;28;20023;-60
2023/04/11 05:13:11;;;;;;;60.00;56.10;;;;;;;;;;4991527;28;20089;-60
2023/04/11 05:15:37;;;;;;;63.08;58.97;;;;;;;;;;4990445;28;20019;-60
2023/04/11 05:18:03;;;;;;;57.88;54.17;;;;;;;;;;4992390;28;20034;-60
2023/04/11 05:20:29;;;;;;;54.50;51.00;;;;;;;;;;4989662;28;20388;-61
2023/04/11 05:22:55;;;;;;;59.08;55.38;;;;;;;;;;4989609;28;20030;-61
2023/04/11 05:25:21;;;;;;;51.40;48.10;;;;;;;;;;4990148;28;20375;-61
2023/04/11 05:27:47;;;;;;;54.22;50.72;;;;;;;;;;4991927;28;20027;-60
2023/04/11 05:30:13;;;;;;;49.40;46.20;;;;;;;;;;4991446;28;20057;-61
2023/04/11 05:32:39;;;;;;;48.53;45.33;;;;;;;;;;4991764;28;20030;-60
2023/04/11 05:35:05;;;;;;;45.30;42.30;;;;;;;;;;4991037;28;20526;-62
2023/04/11 05:37:31;;;;;;;44.90;41.80;;;;;;;;;;4991457;28;20113;-64
2023/04/11 05:39:58;;;;;;;43.13;40.22;;;;;;;;;;4991975;28;20090;-63
2023/04/11 05:42:24;;;;;;;42.28;39.38;;;;;;;;;;4991912;28;20030;-63
2023/04/11 05:44:50;;;;;;;41.97;39.08;;;;;;;;;;4991209;28;20084;-63
2023/04/11 05:47:16;;;;;;;42.58;39.67;;;;;;;;;;4991636;28;20030;-62
2023/04/11 05:49:42;;;;;;;43.70;40.70;;;;;;;;;;5009293;22;20093;-63
2023/04/11 05:52:08;;;;;;;43.13;40.13;;;;;;;;;;5018629;28;20457;-59
2023/04/11 05:54:35;;;;;;;42.65;39.75;;;;;;;;;;5011741;28;20018;-62
2023/04/11 05:57:02;;;;;;;41.35;38.55;;;;;;;;;;5010825;28;20076;-62
2023/04/11 05:59:31;;;;;;;42.17;39.28;;;;;;;;;;5017524;28;20022;-62
2023/04/11 06:01:58;;;;;;;41.55;38.75;;;;;;;;;;5011948;28;20504;-61
2023/04/11 06:04:24;;;;;;;40.88;38.08;;;;;;;;;;4992650;28;20021;-60
2023/04/11 06:06:50;;;;;;;40.60;37.83;;;;;;;;;;5003494;28;20096;-60
2023/04/11 06:09:17;;;;;;;40.70;37.90;;;;;;;;;;5016172;28;20041;-62
2023/04/11 06:11:43;;;;;;;37.05;34.45;;;;;;;;;;5011134;28;20030;-62
2023/04/11 06:14:09;;;;;;;35.55;33.05;;;;;;;;;;4992925;28;20398;-60
2023/04/11 06:16:37;;;;;;;34.05;31.55;;;;;;;;;;5008994;28;20486;-61
2023/04/11 06:19:03;;;;;;;33.28;30.88;;;;;;;;;;5011805;28;20028;-62
2023/04/11 06:21:31;;;;;;;31.98;29.58;;;;;;;;;;5010197;28;20057;-60
2023/04/11 06:23:57;;;;;;;31.70;29.30;;;;;;;;;;5010903;28;20022;-62
2023/04/11 06:26:23;;;;;;;32.00;29.60;;;;;;;;;;5011493;28;20033;-61
2023/04/11 06:28:50;;;;;;;29.98;27.67;;;;;;;;;;5011594;28;20467;-63
2023/04/11 06:31:16;;;;;;;27.85;25.65;;;;;;;;;;5010059;28;20026;-62
2023/04/11 06:33:41;;;;;;;24.95;22.92;;;;;;;;;;5010751;28;20021;-63
2023/04/11 06:36:08;;;;;;;22.38;20.48;;;;;;;;;;5011520;28;20026;-63
2023/04/11 06:38:35;;;;;;;22.40;20.50;;;;;;;;;;5011846;28;20037;-63
2023/04/11 06:41:01;;;;;;;21.35;19.45;;;;;;;;;;5020439;28;20026;-62
2023/04/11 06:43:27;;;;;;;19.10;17.30;;;;;;;;;;5014455;28;20045;-61
2023/04/11 06:45:53;;;;;;;18.85;17.05;;;;;;;;;;5015353;28;20132;-60
2023/04/11 06:48:19;;;;;;;16.65;14.95;;;;;;;;;;5014017;28;20474;-62
2023/04/11 06:50:47;;;;;;;17.27;15.57;;;;;;;;;;5014942;28;20081;-60
2023/04/11 06:53:13;;;;;;;16.23;14.52;;;;;;;;;;5014277;28;20474;-63
2023/04/11 06:55:39;;;;;;;16.30;14.60;;;;;;;;;;5014873;28;20028;-63
2023/04/11 06:58:05;;;;;;;15.15;13.35;;;;;;;;;;5014713;28;20394;-64
2023/04/11 07:00:31;;;;;;;14.77;12.07;;;;;;;;;;5014980;28;20029;-62
2023/04/11 07:02:58;;;;;;;14.30;10.73;;;;;;;;;;5014545;28;20112;-61
2023/04/11 07:05:25;;;;;;;13.75;9.10;;;;;;;;;;5014679;28;20113;-62
2023/04/11 07:07:51;;;;;;;14.68;9.65;;;;;;;;;;4997500;28;20084;-63
2023/04/11 07:10:17;;;;;;;13.75;9.07;;;;;;;;;;5015005;28;20449;-63
2023/04/11 07:12:44;;;;;;;13.57;8.60;;;;;;;;;;4997198;28;20061;-62
2023/04/11 07:15:10;;;;;;;13.55;8.63;;;;;;;;;;5012414;28;20170;-63
2023/04/11 07:17:36;;;;;;;13.70;8.98;;;;;;;;;;4997342;28;20129;-64
2023/04/11 07:20:05;;;;;;;13.48;8.43;;;;;;;;;;4997073;28;20461;-60
2023/04/11 07:22:31;;;;;;;13.57;8.63;;;;;;;;;;5014933;28;20029;-63
2023/04/11 07:24:57;;;;;;;13.35;8.25;;;;;;;;;;5014597;28;20025;-62
2023/04/11 07:27:23;;;;;;;13.68;8.90;;;;;;;;;;5014795;28;20032;-62
2023/04/11 07:29:49;;;;;;;13.50;8.40;;;;;;;;;;5014899;28;20028;-61
2023/04/11 07:32:15;;;;;;;13.32;8.10;;;;;;;;;;4997031;28;20555;-62
2023/04/11 07:34:41;;;;;;;14.98;9.85;;;;;;;;;;4996403;28;20840;-62
2023/04/11 07:37:07;;;;;;;13.40;8.07;;;;;;;;;;5014236;28;20102;-59
2023/04/11 07:39:33;;;;;;;13.27;7.97;;;;;;;;;;5014158;28;20026;-57
2023/04/11 07:42:00;;;;;;;13.52;8.43;;;;;;;;;;5012317;28;20018;-64
2023/04/11 07:44:26;;;;;;;13.38;8.15;;;;;;;;;;5013400;28;20117;-63
2023/04/11 07:46:52;;;;;;;13.13;7.80;;;;;;;;;;5013934;28;20053;-64
2023/04/11 07:49:18;;;;;;;13.20;7.85;;;;;;;;;;5013744;28;20080;-64
2023/04/11 07:51:44;;;;;;;12.88;7.57;;;;;;;;;;5012766;28;20040;-63
2023/04/11 07:54:11;;;;;;;13.27;8.05;;;;;;;;;;5012997;28;20516;-62
2023/04/11 07:56:37;;;;;;;13.45;8.20;;;;;;;;;;4996271;28;20083;-62
2023/04/11 07:59:03;;;;;;;13.07;7.68;;;;;;;;;;4996469;28;20034;-62
2023/04/11 08:01:30;;;;;;;13.43;8.13;;;;;;;;;;5013883;28;20404;-66
2023/04/11 08:03:56;;;;;;;13.50;8.43;;;;;;;;;;5013606;28;20029;-64
2023/04/11 08:06:22;;;;;;;13.25;7.82;;;;;;;;;;5013621;28;20101;-65
2023/04/11 08:08:48;;;;;;;13.50;8.48;;;;;;;;;;4996431;28;20175;-63
2023/04/11 08:11:15;;;;;;;13.45;8.32;;;;;;;;;;4993988;28;20029;-63
2023/04/11 08:13:41;;;;;;;13.07;7.72;;;;;;;;;;5012504;28;20028;-63
2023/04/11 08:16:08;;;;;;;13.00;7.60;;;;;;;;;;5000513;28;20025;-64
2023/04/11 08:18:34;;;;;;;12.63;7.35;;;;;;;;;;5013680;28;20030;-63
2023/04/11 08:21:01;;;;;;;12.95;7.63;;;;;;;;;;4995543;28;20033;-63
2023/04/11 08:23:28;;;;;;;13.23;7.88;;;;;;;;;;4998071;28;20033;-63
2023/04/11 08:25:54;;;;;;;12.90;7.53;;;;;;;;;;5012550;28;20108;-63
2023/04/11 08:28:21;;;;;;;17.05;11.00;;;;;;;;;;5014179;28;20026;-64
2023/04/11 08:30:47;;;;;;;17.00;8.88;;;;;;;;;;4996394;28;20032;-63
2023/04/11 08:33:14;;;;;;;16.63;9.10;;;;;;;;;;5012931;28;20088;-63
2023/04/11 08:35:41;;;;;;;19.55;9.27;;;;;;;;;;5013151;28;20508;-64
2023/04/11 08:38:08;;;;;;;17.65;9.15;;;;;;;;;;4995694;28;20386;-64
2023/04/11 08:40:34;;;;;;;16.95;9.20;;;;;;;;;;4995444;28;20028;-64
2023/04/11 08:43:00;;;;;;;18.98;8.77;;;;;;;;;;4995333;28;20036;-64
2023/04/11 08:45:27;;;;;;;17.52;8.70;;;;;;;;;;4995301;28;20120;-65
2023/04/11 08:47:53;;;;;;;18.02;9.50;;;;;;;;;;5012912;28;20026;-64
2023/04/11 08:50:19;;;;;;;17.77;9.13;;;;;;;;;;5012843;28;20061;-64
2023/04/11 08:52:46;;;;;;;19.17;9.50;;;;;;;;;;5012703;28;20061;-64
2023/04/11 08:55:12;;;;;;;15.25;8.85;;;;;;;;;;5011958;28;20060;-67
2023/04/11 08:57:38;;;;;;;18.80;8.98;;;;;;;;;;5011736;28;20018;-63
2023/04/11 09:00:17;;;;;;;17.35;9.65;;;;;;;;;;4656815;28;9999847;-63
2023/04/11 09:03:00;;;;;;;17.27;9.20;;;;;;;;;;4991158;28;20711;-62
2023/04/11 09:05:26;;;;;;;17.58;8.85;;;;;;;;;;4988281;28;20038;-63
2023/04/11 09:07:52;;;;;;;18.33;9.23;;;;;;;;;;4990116;28;20026;-64
2023/04/11 09:10:19;;;;;;;16.42;9.30;;;;;;;;;;5007137;28;20029;-64
2023/04/11 09:12:45;;;;;;;17.42;8.98;;;;;;;;;;5009127;28;20037;-63
2023/04/11 09:15:18;;;;;;;16.48;9.32;;;;;;;;;;5008829;28;20022;-64
2023/04/11 09:17:44;;;;;;;18.33;8.68;;;;;;;;;;5009221;28;20045;-64
2023/04/11 09:20:20;;;;;;;17.83;8.55;;;;;;;;;;4991748;28;20112;-63
2023/04/11 09:22:48;;;;;;;17.80;8.70;;;;;;;;;;5009755;28;20041;-64
2023/04/11 09:25:14;;;;;;;17.25;9.05;;;;;;;;;;5010842;28;20411;-65
2023/04/11 09:27:40;;;;;;;22.20;9.43;;;;;;;;;;4995002;28;20044;-63
2023/04/11 09:30:18;;;;;;;18.00;8.43;;;;;;;;;;5012491;28;20104;-65
2023/04/11 09:32:45;;;;;;;17.90;8.88;;;;;;;;;;4994701;28;20394;-63
2023/04/11 09:35:11;;;;;;;17.80;9.05;;;;;;;;;;5012063;28;20026;-63
2023/04/11 09:37:44;;;;;;;18.05;8.55;;;;;;;;;;5011536;28;20014;-64
2023/04/11 09:40:10;;;;;;;16.63;9.10;;;;;;;;;;4994448;28;20030;-65
2023/04/11 09:42:37;;;;;;;20.70;9.88;;;;;;;;;;4994699;28;20137;-64
2023/04/11 09:45:03;;;;;;;17.33;9.25;;;;;;;;;;5011417;28;20437;-66
2023/04/11 09:47:35;;;;;;;20.90;8.88;;;;;;;;;;5011911;28;20041;-64
2023/04/11 09:50:01;;;;;;;17.35;10.05;;;;;;;;;;4994156;28;20640;-61
2023/04/11 09:52:28;;;;;;;19.23;10.52;;;;;;;;;;5011989;28;20121;-64
2023/04/11 09:54:54;;;;;;;15.40;8.82;;;;;;;;;;5011306;28;20026;-63
2023/04/11 09:57:21;;;;;;;18.50;9.05;;;;;;;;;;5011476;28;20075;-63
2023/04/11 09:59:48;;;;;;;19.83;9.90;;;;;;;;;;5011781;28;20610;-64
2023/04/11 10:02:14;;;;;;;18.35;9.63;;;;;;;;;;5011409;28;20026;-65
2023/04/11 10:04:40;;;;;;;15.38;9.27;;;;;;;;;;4662490;28;9999709;-65
2023/04/11 10:07:13;;;;;;;19.83;8.73;;;;;;;;;;5008874;28;20105;-64
2023/04/11 10:09:40;;;;;;;18.42;9.23;;;;;;;;;;5008873;28;20033;-63
2023/04/11 10:12:07;;;;;;;19.88;9.70;;;;;;;;;;4991464;28;20120;-65
2023/04/11 10:14:36;;;;;;;18.15;10.18;;;;;;;;;;4992443;28;20034;-65
2023/04/11 10:17:16;;;;;;;18.10;9.27;;;;;;;;;;5012654;28;20041;-64
2023/04/11 10:19:47;;;;;;;17.77;10.40;;;;;;;;;;4992345;28;20109;-65
2023/04/11 10:22:31;;;;;;;17.00;9.23;;;;;;;;;;4995228;28;20490;-64
2023/04/11 10:25:16;;;;;;;18.67;10.80;;;;;;;;;;4976552;28;20030;-65
2023/04/11 10:27:49;;;;;;;18.67;10.55;;;;;;;;;;4641567;28;10000712;-65
2023/04/11 10:30:16;;;;;;;17.52;10.02;;;;;;;;;;4994569;28;20034;-62
2023/04/11 10:33:02;;;;;;;20.13;8.82;;;;;;;;;;5013952;28;20375;-65
2023/04/11 10:35:29;;;;;;;18.05;8.20;;;;;;;;;;4996469;28;20105;-66
2023/04/11 10:37:55;;;;;;;18.27;8.05;;;;;;;;;;4993989;28;20022;-60
2023/04/11 10:40:22;;;;;;;19.30;8.30;;;;;;;;;;5011778;28;20084;-55
2023/04/11 10:42:49;;;;;;;17.85;8.30;;;;;;;;;;5011941;28;20061;-54
2023/04/11 10:45:15;;;;;;;16.92;7.65;;;;;;;;;;5011137;28;20033;-59
2023/04/11 10:47:41;;;;;;;17.00;8.13;;;;;;;;;;4994216;28;20084;-58
2023/04/11 10:50:28;;;;;;;19.10;8.60;;;;;;;;;;5010848;28;20684;-59
2023/04/11 10:53:02;;;;;;;17.15;8.25;;;;;;;;;;5011555;28;20576;-60
2023/04/11 10:55:28;;;;;;;20.83;9.60;;;;;;;;;;5011472;28;20113;-58
2023/04/11 10:58:21;;;;;;;15.60;8.52;;;;;;;;;;5011469;28;20026;-60
2023/04/11 11:00:47;;;;;;;21.27;9.68;;;;;;;;;;4993421;28;20032;-56
2023/04/11 11:03:17;;;;;;;21.05;10.27;;;;;;;;;;5010250;28;20080;-56
2023/04/11 11:05:43;;;;;;;16.27;8.73;;;;;;;;;;5011760;28;20030;-58
2023/04/11 11:08:09;;;;;;;18.33;9.48;;;;;;;;;;5011334;28;20061;-56
2023/04/11 11:10:45;;;;;;;20.00;9.40;;;;;;;;;;5011363;28;20037;-56
2023/04/11 11:13:15;;;;;;;14.93;8.93;;;;;;;;;;4992596;28;20096;-59
2023/04/11 11:15:46;;;;;;;18.77;10.10;;;;;;;;;;4993592;28;20133;-60
2023/04/11 11:18:14;;;;;;;19.27;9.13;;;;;;;;;;5011368;28;20034;-60
2023/04/11 11:20:40;;;;;;;16.23;9.73;;;;;;;;;;5011070;28;20028;-59
2023/04/11 11:23:07;;;;;;;19.73;9.85;;;;;;;;;;5010500;28;20029;-60
2023/04/11 11:25:33;;;;;;;15.82;9.68;;;;;;;;;;4992791;28;20030;-56
2023/04/11 11:28:00;;;;;;;16.98;9.38;;;;;;;;;;5010775;28;20482;-59
2023/04/11 11:30:27;;;;;;;20.50;9.88;;;;;;;;;;4993444;28;20030;-58
2023/04/11 11:32:53;;;;;;;18.55;9.90;;;;;;;;;;4994943;28;20030;-57
2023/04/11 11:35:19;;;;;;;20.40;10.68;;;;;;;;;;5012794;28;20543;-60
2023/04/11 11:37:45;;;;;;;17.45;9.23;;;;;;;;;;5014198;28;20018;-57
2023/04/11 11:40:15;;;;;;;20.45;9.63;;;;;;;;;;4996651;28;20536;-57
2023/04/11 11:42:41;;;;;;;18.65;9.50;;;;;;;;;;5013844;28;20439;-56
2023/04/11 11:45:20;;;;;;;17.83;9.75;;;;;;;;;;5013397;28;20022;-58
2023/04/11 11:47:47;;;;;;;18.23;10.05;;;;;;;;;;5013867;28;20069;-58
2023/04/11 11:50:26;;;;;;;20.52;10.98;;;;;;;;;;5029545;23;20043;-56
2023/04/11 11:52:52;;;;;;;19.60;10.30;;;;;;;;;;4975353;28;20398;-58
2023/04/11 11:55:18;;;;;;;19.42;10.80;;;;;;;;;;4993050;28;20041;-59
2023/04/11 11:57:48;;;;;;;16.38;9.30;;;;;;;;;;4993968;28;20406;-59
2023/04/11 12:00:15;;;;;;;18.27;10.02;;;;;;;;;;4978487;28;20026;-56
2023/04/11 12:02:41;;;;;;;16.25;9.60;;;;;;;;;;5004959;28;20050;-60
2023/04/11 12:05:09;;;;;;;18.38;10.15;;;;;;;;;;5002014;28;20025;-58
2023/04/11 12:07:36;;;;;;;15.75;9.55;;;;;;;;;;5013199;28;20471;-60
2023/04/11 12:10:07;;;;;;;26.27;11.48;;;;;;;;;;5013219;28;20034;-52
2023/04/11 12:12:34;;;;;;;18.48;9.98;;;;;;;;;;5012960;28;20053;-55
2023/04/11 12:15:01;;;;;;;16.05;9.55;;;;;;;;;;5012188;28;20041;-58
2023/04/11 12:17:35;;;;;;;18.25;9.50;;;;;;;;;;5012960;28;20072;-56
2023/04/11 12:20:05;;;;;;;19.20;9.25;;;;;;;;;;5012887;28;20471;-54
2023/04/11 12:22:31;;;;;;;16.30;9.27;;;;;;;;;;5012733;28;20036;-62
2023/04/11 12:25:07;;;;;;;17.75;9.65;;;;;;;;;;4994583;28;20153;-57
2023/04/11 12:27:34;;;;;;;15.02;9.00;;;;;;;;;;5013190;28;20026;-56
2023/04/11 12:30:00;;;;;;;15.65;8.88;;;;;;;;;;5013264;28;20446;-60
2023/04/11 12:32:26;;;;;;;17.10;9.32;;;;;;;;;;5012902;28;20022;-60
2023/04/11 12:34:53;;;;;;;20.60;9.23;;;;;;;;;;4987291;28;20116;-60
2023/04/11 12:37:22;;;;;;;16.55;9.80;;;;;;;;;;5004801;28;20033;-56
2023/04/11 12:39:47;;;;;;;19.67;9.70;;;;;;;;;;4985776;28;20041;-60
2023/04/11 12:42:14;;;;;;;15.55;9.23;;;;;;;;;;5004942;28;20456;-60
2023/04/11 12:44:40;;;;;;;19.13;9.90;;;;;;;;;;5000197;28;20042;-53
2023/04/11 12:47:06;;;;;;;18.83;9.95;;;;;;;;;;5002939;28;20085;-60
2023/04/11 12:49:32;;;;;;;16.42;9.60;;;;;;;;;;5001468;28;20068;-62
2023/04/11 12:51:58;;;;;;;17.85;9.50;;;;;;;;;;5001057;28;20034;-61
2023/04/11 12:54:24;;;;;;;15.35;9.50;;;;;;;;;;4999808;28;20145;-60
2023/04/11 12:56:50;;;;;;;16.80;9.50;;;;;;;;;;5012078;28;20022;-59
2023/04/11 12:59:16;;;;;;;16.40;9.52;;;;;;;;;;5011973;28;20026;-60
2023/04/11 13:01:42;;;;;;;16.25;9.02;;;;;;;;;;5010755;28;20108;-54
2023/04/11 13:04:09;;;;;;;15.27;8.90;;;;;;;;;;5003998;28;20030;-54
2023/04/11 13:06:36;;;;;;;18.42;9.10;;;;;;;;;;5011591;28;20026;-62
2023/04/11 13:09:04;;;;;;;15.07;8.88;;;;;;;;;;4994146;28;20124;-56
2023/04/11 13:11:30;;;;;;;15.98;9.23;;;;;;;;;;5011798;28;20046;-57
2023/04/11 13:13:56;;;;;;;17.48;9.30;;;;;;;;;;5011631;28;20061;-53
2023/04/11 13:16:22;;;;;;;17.27;9.20;;;;;;;;;;4994972;28;20033;-61
2023/04/11 13:18:48;;;;;;;15.88;9.60;;;;;;;;;;4994673;28;20026;-57
2023/04/11 13:21:14;;;;;;;17.85;9.50;;;;;;;;;;5011761;28;20020;-57
2023/04/11 13:23:41;;;;;;;16.67;9.80;;;;;;;;;;5011103;28;20088;-55
2023/04/11 13:26:07;;;;;;;16.75;9.90;;;;;;;;;;5011542;28;20190;-62
2023/04/11 13:28:33;;;;;;;15.80;9.40;;;;;;;;;;5011647;28;20037;-61
2023/04/11 13:31:00;;;;;;;15.85;9.50;;;;;;;;;;5011758;28;20083;-61
2023/04/11 13:33:26;;;;;;;16.65;10.48;;;;;;;;;;5010865;28;20034;-61
2023/04/11 13:35:52;;;;;;;16.23;9.98;;;;;;;;;;4993756;28;20018;-59
2023/04/11 13:38:18;;;;;;;15.52;10.35;;;;;;;;;;4994439;28;20079;-59
2023/04/11 13:40:44;;;;;;;16.85;10.38;;;;;;;;;;5011301;28;20402;-61
2023/04/11 13:43:10;;;;;;;16.23;10.70;;;;;;;;;;5008863;28;20018;-55
2023/04/11 13:45:36;;;;;;;17.70;11.10;;;;;;;;;;5011307;28;20026;-56
2023/04/11 13:48:02;;;;;;;18.20;10.50;;;;;;;;;;5007862;28;20030;-60
2023/04/11 13:50:28;;;;;;;19.95;10.43;;;;;;;;;;5010320;28;20025;-54
2023/04/11 13:52:54;;;;;;;17.20;10.60;;;;;;;;;;5010984;28;20026;-58
2023/04/11 13:55:22;;;;;;;16.08;10.35;;;;;;;;;;5010672;28;20048;-60
2023/04/11 13:57:48;;;;;;;18.95;9.77;;;;;;;;;;4993499;28;20092;-59
2023/04/11 14:00:14;;;;;;;14.85;10.23;;;;;;;;;;5011239;28;20462;-59
2023/04/11 14:02:40;;;;;;;14.43;10.15;;;;;;;;;;5002916;28;20022;-58
2023/04/11 14:05:07;;;;;;;15.80;9.95;;;;;;;;;;5009674;28;20064;-60
2023/04/11 14:07:33;;;;;;;15.55;9.90;;;;;;;;;;5011054;28;20022;-60
2023/04/11 14:09:59;;;;;;;16.10;10.15;;;;;;;;;;5011178;28;20042;-59
2023/04/11 14:12:26;;;;;;;14.93;9.80;;;;;;;;;;5009782;28;20112;-57
2023/04/11 14:14:52;;;;;;;15.85;10.70;;;;;;;;;;5010386;28;20076;-61
2023/04/11 14:17:18;;;;;;;18.48;10.50;;;;;;;;;;5011182;28;20569;-60
2023/04/11 14:19:44;;;;;;;15.73;10.38;;;;;;;;;;5011455;28;20030;-60
2023/04/11 14:22:10;;;;;;;14.90;9.98;;;;;;;;;;4999905;28;20037;-56